sensor_id;sensor_type;location;lat;lon;timestamp;temperature;humidity
20438;DHT22;17436;50.338;8.810;2022-09-12T00:01:12;16.70;88.30
20438;DHT22;17436;50.338;8.810;2022-09-12T00:03:39;16.80;86.80
20438;DHT22;17436;50.338;8.810;2022-09-12T00:06:08;16.70;85.40
20438;DHT22;17436;50.338;8.810;2022-09-12T00:08:36;16.70;85.80
20438;DHT22;17436;50.338;8.810;2022-09-12T00:11:05;16.70;84.00
20438;DHT22;17436;50.338;8.810;2022-09-12T00:13:32;16.60;82.90
20438;DHT22;17436;50.338;8.810;2022-09-12T00:15:58;16.60;83.40
20438;DHT22;17436;50.338;8.810;2022-09-12T00:18:26;16.50;80.70
20438;DHT22;17436;50.338;8.810;2022-09-12T00:20:52;16.50;80.00
20438;DHT22;17436;50.338;8.810;2022-09-12T00:23:19;16.40;79.40
20438;DHT22;17436;50.338;8.810;2022-09-12T00:25:48;16.30;80.80
20438;DHT22;17436;50.338;8.810;2022-09-12T00:28:16;16.40;81.90
20438;DHT22;17436;50.338;8.810;2022-09-12T00:30:45;16.40;80.50
20438;DHT22;17436;50.338;8.810;2022-09-12T00:33:12;16.40;80.20
20438;DHT22;17436;50.338;8.810;2022-09-12T00:35:43;16.40;78.00
20438;DHT22;17436;50.338;8.810;2022-09-12T00:38:10;16.40;76.00
20438;DHT22;17436;50.338;8.810;2022-09-12T00:40:37;16.20;75.90
20438;DHT22;17436;50.338;8.810;2022-09-12T00:43:10;16.20;78.30
20438;DHT22;17436;50.338;8.810;2022-09-12T00:45:38;16.20;76.80
20438;DHT22;17436;50.338;8.810;2022-09-12T00:48:29;16.30;76.60
20438;DHT22;17436;50.338;8.810;2022-09-12T00:50:57;16.20;72.20
20438;DHT22;17436;50.338;8.810;2022-09-12T00:53:24;16.10;72.80
20438;DHT22;17436;50.338;8.810;2022-09-12T00:55:56;16.10;73.80
20438;DHT22;17436;50.338;8.810;2022-09-12T00:58:27;16.10;75.70
20438;DHT22;17436;50.338;8.810;2022-09-12T01:00:55;16.10;75.70
20438;DHT22;17436;50.338;8.810;2022-09-12T01:03:24;16.00;75.60
20438;DHT22;17436;50.338;8.810;2022-09-12T01:05:55;15.80;77.50
20438;DHT22;17436;50.338;8.810;2022-09-12T01:08:25;15.90;75.50
20438;DHT22;17436;50.338;8.810;2022-09-12T01:10:53;15.80;70.70
20438;DHT22;17436;50.338;8.810;2022-09-12T01:13:20;15.80;69.30
20438;DHT22;17436;50.338;8.810;2022-09-12T01:15:49;15.80;70.10
20438;DHT22;17436;50.338;8.810;2022-09-12T01:18:20;15.70;71.40
20438;DHT22;17436;50.338;8.810;2022-09-12T01:20:57;15.70;72.20
20438;DHT22;17436;50.338;8.810;2022-09-12T01:24:07;15.70;70.30
20438;DHT22;17436;50.338;8.810;2022-09-12T01:26:56;15.70;67.70
20438;DHT22;17436;50.338;8.810;2022-09-12T01:29:43;15.70;67.70
20438;DHT22;17436;50.338;8.810;2022-09-12T01:32:19;15.80;70.70
20438;DHT22;17436;50.338;8.810;2022-09-12T01:34:52;15.80;71.10
20438;DHT22;17436;50.338;8.810;2022-09-12T01:37:25;15.70;72.00
20438;DHT22;17436;50.338;8.810;2022-09-12T01:39:59;15.80;73.50
20438;DHT22;17436;50.338;8.810;2022-09-12T01:42:31;15.80;74.70
20438;DHT22;17436;50.338;8.810;2022-09-12T01:45:08;15.70;75.80
20438;DHT22;17436;50.338;8.810;2022-09-12T01:47:42;15.70;73.30
20438;DHT22;17436;50.338;8.810;2022-09-12T01:50:15;15.70;75.40
20438;DHT22;17436;50.338;8.810;2022-09-12T01:52:47;15.70;75.40
20438;DHT22;17436;50.338;8.810;2022-09-12T01:55:18;15.70;75.40
20438;DHT22;17436;50.338;8.810;2022-09-12T01:57:50;15.60;75.30
20438;DHT22;17436;50.338;8.810;2022-09-12T02:00:18;15.60;75.30
20438;DHT22;17436;50.338;8.810;2022-09-12T02:02:50;15.60;75.30
20438;DHT22;17436;50.338;8.810;2022-09-12T02:05:22;15.60;78.40
20438;DHT22;17436;50.338;8.810;2022-09-12T02:07:55;15.60;75.30
20438;DHT22;17436;50.338;8.810;2022-09-12T02:10:30;15.50;75.20
20438;DHT22;17436;50.338;8.810;2022-09-12T02:13:01;15.60;75.30
20438;DHT22;17436;50.338;8.810;2022-09-12T02:15:33;15.60;75.30
20438;DHT22;17436;50.338;8.810;2022-09-12T02:18:04;15.60;76.90
20438;DHT22;17436;50.338;8.810;2022-09-12T02:20:34;15.70;77.90
20438;DHT22;17436;50.338;8.810;2022-09-12T02:23:04;15.60;78.30
20438;DHT22;17436;50.338;8.810;2022-09-12T02:25:33;15.50;79.40
20438;DHT22;17436;50.338;8.810;2022-09-12T02:28:08;15.50;78.50
20438;DHT22;17436;50.338;8.810;2022-09-12T02:30:40;15.50;81.40
20438;DHT22;17436;50.338;8.810;2022-09-12T02:33:16;15.50;81.70
20438;DHT22;17436;50.338;8.810;2022-09-12T02:35:47;15.50;80.90
20438;DHT22;17436;50.338;8.810;2022-09-12T02:38:21;15.50;79.30
20438;DHT22;17436;50.338;8.810;2022-09-12T02:40:50;15.50;76.60
20438;DHT22;17436;50.338;8.810;2022-09-12T02:43:16;15.50;76.90
20438;DHT22;17436;50.338;8.810;2022-09-12T02:45:43;15.40;75.10
20438;DHT22;17436;50.338;8.810;2022-09-12T02:48:14;15.40;77.20
20438;DHT22;17436;50.338;8.810;2022-09-12T02:50:42;15.40;78.40
20438;DHT22;17436;50.338;8.810;2022-09-12T02:53:09;15.40;77.20
20438;DHT22;17436;50.338;8.810;2022-09-12T02:55:38;15.30;80.60
20438;DHT22;17436;50.338;8.810;2022-09-12T02:58:09;15.20;80.70
20438;DHT22;17436;50.338;8.810;2022-09-12T03:00:43;15.10;80.70
20438;DHT22;17436;50.338;8.810;2022-09-12T03:03:24;15.20;82.60
20438;DHT22;17436;50.338;8.810;2022-09-12T03:05:55;15.10;82.30
20438;DHT22;17436;50.338;8.810;2022-09-12T03:08:34;15.20;83.50
20438;DHT22;17436;50.338;8.810;2022-09-12T03:11:18;15.20;83.80
20438;DHT22;17436;50.338;8.810;2022-09-12T03:13:53;15.20;81.90
20438;DHT22;17436;50.338;8.810;2022-09-12T03:16:32;15.30;80.10
20438;DHT22;17436;50.338;8.810;2022-09-12T03:19:06;15.00;78.00
20438;DHT22;17436;50.338;8.810;2022-09-12T03:21:42;15.10;76.70
20438;DHT22;17436;50.338;8.810;2022-09-12T03:24:12;15.10;74.80
20438;DHT22;17436;50.338;8.810;2022-09-12T03:26:43;15.10;71.80
20438;DHT22;17436;50.338;8.810;2022-09-12T03:29:13;15.00;73.40
20438;DHT22;17436;50.338;8.810;2022-09-12T03:31:48;15.00;74.80
20438;DHT22;17436;50.338;8.810;2022-09-12T03:34:17;15.00;73.70
20438;DHT22;17436;50.338;8.810;2022-09-12T03:36:44;15.00;74.80
20438;DHT22;17436;50.338;8.810;2022-09-12T03:39:10;15.00;71.50
20438;DHT22;17436;50.338;8.810;2022-09-12T03:41:37;15.00;71.50
20438;DHT22;17436;50.338;8.810;2022-09-12T03:44:04;14.90;73.70
20438;DHT22;17436;50.338;8.810;2022-09-12T03:46:31;15.00;72.90
20438;DHT22;17436;50.338;8.810;2022-09-12T03:48:57;14.80;71.60
20438;DHT22;17436;50.338;8.810;2022-09-12T03:51:25;14.90;72.70
20438;DHT22;17436;50.338;8.810;2022-09-12T03:53:53;14.80;69.20
20438;DHT22;17436;50.338;8.810;2022-09-12T03:56:19;14.80;67.90
20438;DHT22;17436;50.338;8.810;2022-09-12T03:58:46;14.90;69.70
20438;DHT22;17436;50.338;8.810;2022-09-12T04:01:15;14.90;70.60
20438;DHT22;17436;50.338;8.810;2022-09-12T04:03:43;14.90;71.40
20438;DHT22;17436;50.338;8.810;2022-09-12T04:06:13;14.90;74.70
20438;DHT22;17436;50.338;8.810;2022-09-12T04:08:41;15.00;74.80
20438;DHT22;17436;50.338;8.810;2022-09-12T04:11:11;15.00;74.10
20438;DHT22;17436;50.338;8.810;2022-09-12T04:13:39;14.90;78.30
20438;DHT22;17436;50.338;8.810;2022-09-12T04:16:07;15.00;76.20
20438;DHT22;17436;50.338;8.810;2022-09-12T04:18:35;15.10;77.40
20438;DHT22;17436;50.338;8.810;2022-09-12T04:21:03;15.10;74.80
20438;DHT22;17436;50.338;8.810;2022-09-12T04:23:30;15.00;74.80
20438;DHT22;17436;50.338;8.810;2022-09-12T04:25:59;15.00;74.80
20438;DHT22;17436;50.338;8.810;2022-09-12T04:28:28;14.90;76.50
20438;DHT22;17436;50.338;8.810;2022-09-12T04:30:54;15.00;75.90
20438;DHT22;17436;50.338;8.810;2022-09-12T04:33:22;15.00;74.80
20438;DHT22;17436;50.338;8.810;2022-09-12T04:35:48;14.90;74.70
20438;DHT22;17436;50.338;8.810;2022-09-12T04:38:15;14.90;74.70
20438;DHT22;17436;50.338;8.810;2022-09-12T04:40:42;14.90;74.70
20438;DHT22;17436;50.338;8.810;2022-09-12T04:43:10;14.80;74.60
20438;DHT22;17436;50.338;8.810;2022-09-12T04:45:36;14.70;75.70
20438;DHT22;17436;50.338;8.810;2022-09-12T04:48:03;14.70;75.90
20438;DHT22;17436;50.338;8.810;2022-09-12T04:50:30;14.40;79.00
20438;DHT22;17436;50.338;8.810;2022-09-12T04:52:56;14.50;74.40
20438;DHT22;17436;50.338;8.810;2022-09-12T04:55:23;14.60;69.80
20438;DHT22;17436;50.338;8.810;2022-09-12T04:57:50;14.60;70.10
20438;DHT22;17436;50.338;8.810;2022-09-12T05:00:19;14.60;68.80
20438;DHT22;17436;50.338;8.810;2022-09-12T05:02:46;14.70;68.30
20438;DHT22;17436;50.338;8.810;2022-09-12T05:05:12;14.60;69.90
20438;DHT22;17436;50.338;8.810;2022-09-12T05:07:39;14.50;75.40
20438;DHT22;17436;50.338;8.810;2022-09-12T05:10:07;14.60;74.40
20438;DHT22;17436;50.338;8.810;2022-09-12T05:12:34;14.70;74.50
20438;DHT22;17436;50.338;8.810;2022-09-12T05:15:01;14.70;74.50
20438;DHT22;17436;50.338;8.810;2022-09-12T05:17:30;14.60;75.00
20438;DHT22;17436;50.338;8.810;2022-09-12T05:19:57;14.70;77.10
20438;DHT22;17436;50.338;8.810;2022-09-12T05:22:24;14.70;76.70
20438;DHT22;17436;50.338;8.810;2022-09-12T05:24:50;14.80;74.60
20438;DHT22;17436;50.338;8.810;2022-09-12T05:27:17;14.90;74.70
20438;DHT22;17436;50.338;8.810;2022-09-12T05:29:44;14.80;74.60
20438;DHT22;17436;50.338;8.810;2022-09-12T05:32:11;14.90;74.70
20438;DHT22;17436;50.338;8.810;2022-09-12T05:34:39;14.70;74.50
20438;DHT22;17436;50.338;8.810;2022-09-12T05:37:06;14.80;76.20
20438;DHT22;17436;50.338;8.810;2022-09-12T05:39:33;14.80;77.90
20438;DHT22;17436;50.338;8.810;2022-09-12T05:42:00;14.90;76.70
20438;DHT22;17436;50.338;8.810;2022-09-12T05:44:26;14.90;76.60
20438;DHT22;17436;50.338;8.810;2022-09-12T05:46:53;14.90;78.10
20438;DHT22;17436;50.338;8.810;2022-09-12T05:49:20;15.10;76.80
20438;DHT22;17436;50.338;8.810;2022-09-12T05:51:48;15.20;74.90
20438;DHT22;17436;50.338;8.810;2022-09-12T05:54:17;15.30;75.00
20438;DHT22;17436;50.338;8.810;2022-09-12T05:56:45;15.20;73.40
20438;DHT22;17436;50.338;8.810;2022-09-12T05:59:14;15.10;74.80
20438;DHT22;17436;50.338;8.810;2022-09-12T06:01:42;15.20;76.60
20438;DHT22;17436;50.338;8.810;2022-09-12T06:04:09;15.40;75.10
20438;DHT22;17436;50.338;8.810;2022-09-12T06:06:38;15.30;77.10
20438;DHT22;17436;50.338;8.810;2022-09-12T06:09:08;15.50;76.90
20438;DHT22;17436;50.338;8.810;2022-09-12T06:11:37;15.60;76.20
20438;DHT22;17436;50.338;8.810;2022-09-12T06:14:06;15.70;75.40
20438;DHT22;17436;50.338;8.810;2022-09-12T06:16:33;15.80;73.80
20438;DHT22;17436;50.338;8.810;2022-09-12T06:19:02;15.90;73.50
20438;DHT22;17436;50.338;8.810;2022-09-12T06:21:29;15.90;71.90
20438;DHT22;17436;50.338;8.810;2022-09-12T06:23:57;16.00;72.00
20438;DHT22;17436;50.338;8.810;2022-09-12T06:26:26;16.00;72.30
20438;DHT22;17436;50.338;8.810;2022-09-12T06:28:54;16.00;74.20
20438;DHT22;17436;50.338;8.810;2022-09-12T06:31:25;16.00;75.70
20438;DHT22;17436;50.338;8.810;2022-09-12T06:33:54;16.20;73.20
20438;DHT22;17436;50.338;8.810;2022-09-12T06:36:23;16.00;72.70
20438;DHT22;17436;50.338;8.810;2022-09-12T06:38:53;15.90;75.50
20438;DHT22;17436;50.338;8.810;2022-09-12T06:41:22;16.20;75.80
20438;DHT22;17436;50.338;8.810;2022-09-12T06:43:54;16.50;73.20
20438;DHT22;17436;50.338;8.810;2022-09-12T06:46:23;16.60;71.40
20438;DHT22;17436;50.338;8.810;2022-09-12T06:48:50;16.50;73.70
20438;DHT22;17436;50.338;8.810;2022-09-12T06:51:18;16.60;72.80
20438;DHT22;17436;50.338;8.810;2022-09-12T06:53:46;16.50;76.10
20438;DHT22;17436;50.338;8.810;2022-09-12T06:56:15;16.60;77.80
20438;DHT22;17436;50.338;8.810;2022-09-12T06:58:43;16.60;77.70
20438;DHT22;17436;50.338;8.810;2022-09-12T07:01:14;16.60;77.30
20438;DHT22;17436;50.338;8.810;2022-09-12T07:03:42;16.80;79.30
20438;DHT22;17436;50.338;8.810;2022-09-12T07:06:12;16.80;76.40
20438;DHT22;17436;50.338;8.810;2022-09-12T07:08:40;16.80;76.40
20438;DHT22;17436;50.338;8.810;2022-09-12T07:11:08;16.80;77.40
20438;DHT22;17436;50.338;8.810;2022-09-12T07:13:36;16.90;79.10
20438;DHT22;17436;50.338;8.810;2022-09-12T07:16:04;17.00;78.30
20438;DHT22;17436;50.338;8.810;2022-09-12T07:18:32;17.10;76.60
20438;DHT22;17436;50.338;8.810;2022-09-12T07:20:59;17.20;76.70
20438;DHT22;17436;50.338;8.810;2022-09-12T07:23:26;17.20;76.70
20438;DHT22;17436;50.338;8.810;2022-09-12T07:25:54;17.20;74.10
20438;DHT22;17436;50.338;8.810;2022-09-12T07:28:22;17.30;74.80
20438;DHT22;17436;50.338;8.810;2022-09-12T07:30:49;17.40;77.10
20438;DHT22;17436;50.338;8.810;2022-09-12T07:33:18;17.50;77.00
20438;DHT22;17436;50.338;8.810;2022-09-12T07:35:46;17.50;69.80
20438;DHT22;17436;50.338;8.810;2022-09-12T07:38:14;17.50;68.20
20438;DHT22;17436;50.338;8.810;2022-09-12T07:40:41;17.60;67.10
20438;DHT22;17436;50.338;8.810;2022-09-12T07:43:07;17.70;72.90
20438;DHT22;17436;50.338;8.810;2022-09-12T07:45:34;17.80;76.50
20438;DHT22;17436;50.338;8.810;2022-09-12T07:48:01;17.90;75.70
20438;DHT22;17436;50.338;8.810;2022-09-12T07:50:28;17.90;76.70
20438;DHT22;17436;50.338;8.810;2022-09-12T07:52:56;18.00;73.30
20438;DHT22;17436;50.338;8.810;2022-09-12T07:55:23;18.00;72.90
20438;DHT22;17436;50.338;8.810;2022-09-12T07:57:50;18.10;68.00
20438;DHT22;17436;50.338;8.810;2022-09-12T08:00:17;17.90;68.90
20438;DHT22;17436;50.338;8.810;2022-09-12T08:02:44;18.00;72.60
20438;DHT22;17436;50.338;8.810;2022-09-12T08:05:11;18.10;71.20
20438;DHT22;17436;50.338;8.810;2022-09-12T08:07:38;18.30;68.30
20438;DHT22;17436;50.338;8.810;2022-09-12T08:10:07;18.50;66.20
20438;DHT22;17436;50.338;8.810;2022-09-12T08:12:34;18.60;66.30
20438;DHT22;17436;50.338;8.810;2022-09-12T08:15:01;18.60;60.30
20438;DHT22;17436;50.338;8.810;2022-09-12T08:17:28;18.70;61.00
20438;DHT22;17436;50.338;8.810;2022-09-12T08:19:56;18.80;60.00
20438;DHT22;17436;50.338;8.810;2022-09-12T08:22:23;18.90;62.40
20438;DHT22;17436;50.338;8.810;2022-09-12T08:24:50;18.90;55.90
20438;DHT22;17436;50.338;8.810;2022-09-12T08:27:18;18.80;54.00
20438;DHT22;17436;50.338;8.810;2022-09-12T08:29:45;18.90;55.90
20438;DHT22;17436;50.338;8.810;2022-09-12T08:32:11;19.00;55.90
20438;DHT22;17436;50.338;8.810;2022-09-12T08:34:38;19.00;58.80
20438;DHT22;17436;50.338;8.810;2022-09-12T08:37:05;19.10;57.30
20438;DHT22;17436;50.338;8.810;2022-09-12T08:39:32;19.20;56.20
20438;DHT22;17436;50.338;8.810;2022-09-12T08:42:01;19.20;56.20
20438;DHT22;17436;50.338;8.810;2022-09-12T08:44:40;19.30;51.70
20438;DHT22;17436;50.338;8.810;2022-09-12T08:47:15;19.20;51.10
20438;DHT22;17436;50.338;8.810;2022-09-12T08:49:52;19.20;53.30
20438;DHT22;17436;50.338;8.810;2022-09-12T08:52:24;19.30;54.80
20438;DHT22;17436;50.338;8.810;2022-09-12T08:54:53;19.40;48.90
20438;DHT22;17436;50.338;8.810;2022-09-12T08:57:21;19.40;51.10
20438;DHT22;17436;50.338;8.810;2022-09-12T08:59:50;19.70;51.10
20438;DHT22;17436;50.338;8.810;2022-09-12T09:02:38;19.90;49.60
20438;DHT22;17436;50.338;8.810;2022-09-12T09:05:16;20.10;44.80
20438;DHT22;17436;50.338;8.810;2022-09-12T09:10:46;20.80;37.90
20438;DHT22;17436;50.338;8.810;2022-09-12T09:13:29;20.90;37.10
20438;DHT22;17436;50.338;8.810;2022-09-12T09:16:24;21.10;37.40
20438;DHT22;17436;50.338;8.810;2022-09-12T09:18:56;21.00;37.50
20438;DHT22;17436;50.338;8.810;2022-09-12T09:21:28;21.20;34.00
20438;DHT22;17436;50.338;8.810;2022-09-12T09:24:00;21.60;29.90
20438;DHT22;17436;50.338;8.810;2022-09-12T09:26:36;22.10;26.80
20438;DHT22;17436;50.338;8.810;2022-09-12T09:29:13;21.80;26.80
20438;DHT22;17436;50.338;8.810;2022-09-12T09:31:44;21.20;29.80
20438;DHT22;17436;50.338;8.810;2022-09-12T09:34:18;21.10;32.80
20438;DHT22;17436;50.338;8.810;2022-09-12T09:36:49;20.90;36.10
20438;DHT22;17436;50.338;8.810;2022-09-12T09:39:27;20.80;36.90
20438;DHT22;17436;50.338;8.810;2022-09-12T09:42:06;20.70;37.70
20438;DHT22;17436;50.338;8.810;2022-09-12T09:44:36;20.80;37.30
20438;DHT22;17436;50.338;8.810;2022-09-12T09:47:05;20.80;41.30
20438;DHT22;17436;50.338;8.810;2022-09-12T09:49:33;20.80;41.10
20438;DHT22;17436;50.338;8.810;2022-09-12T09:52:01;20.90;35.80
20438;DHT22;17436;50.338;8.810;2022-09-12T09:54:33;20.90;35.50
20438;DHT22;17436;50.338;8.810;2022-09-12T09:57:00;21.00;32.70
20438;DHT22;17436;50.338;8.810;2022-09-12T09:59:31;20.90;32.60
20438;DHT22;17436;50.338;8.810;2022-09-12T10:01:59;20.90;32.60
20438;DHT22;17436;50.338;8.810;2022-09-12T10:04:30;21.00;34.80
20438;DHT22;17436;50.338;8.810;2022-09-12T10:06:59;21.10;40.20
20438;DHT22;17436;50.338;8.810;2022-09-12T10:09:27;21.20;39.10
20438;DHT22;17436;50.338;8.810;2022-09-12T10:11:55;21.30;37.40
20438;DHT22;17436;50.338;8.810;2022-09-12T10:14:41;21.30;34.00
20438;DHT22;17436;50.338;8.810;2022-09-12T10:17:26;21.20;35.90
20438;DHT22;17436;50.338;8.810;2022-09-12T10:19:55;21.40;33.10
20438;DHT22;17436;50.338;8.810;2022-09-12T10:22:25;21.50;31.20
20438;DHT22;17436;50.338;8.810;2022-09-12T10:24:52;21.50;33.20
20438;DHT22;17436;50.338;8.810;2022-09-12T10:27:22;21.70;31.20
20438;DHT22;17436;50.338;8.810;2022-09-12T10:29:52;21.80;29.90
20438;DHT22;17436;50.338;8.810;2022-09-12T10:32:23;21.80;33.50
20438;DHT22;17436;50.338;8.810;2022-09-12T10:34:55;21.80;33.50
20438;DHT22;17436;50.338;8.810;2022-09-12T10:37:36;21.70;28.70
20438;DHT22;17436;50.338;8.810;2022-09-12T10:40:06;21.60;29.00
20438;DHT22;17436;50.338;8.810;2022-09-12T10:42:48;21.50;31.40
20438;DHT22;17436;50.338;8.810;2022-09-12T10:45:24;21.50;33.20
20438;DHT22;17436;50.338;8.810;2022-09-12T10:47:54;21.60;33.90
20438;DHT22;17436;50.338;8.810;2022-09-12T10:50:27;21.70;29.50
20438;DHT22;17436;50.338;8.810;2022-09-12T10:52:54;21.80;30.70
20438;DHT22;17436;50.338;8.810;2022-09-12T10:55:38;21.90;29.30
20438;DHT22;17436;50.338;8.810;2022-09-12T10:58:21;22.00;28.10
20438;DHT22;17436;50.338;8.810;2022-09-12T11:00:57;21.90;26.50
20438;DHT22;17436;50.338;8.810;2022-09-12T11:03:44;21.80;28.10
20438;DHT22;17436;50.338;8.810;2022-09-12T11:06:20;21.80;28.00
20438;DHT22;17436;50.338;8.810;2022-09-12T11:08:58;22.10;28.50
20438;DHT22;17436;50.338;8.810;2022-09-12T11:11:45;22.10;27.90
20438;DHT22;17436;50.338;8.810;2022-09-12T11:14:25;22.10;29.20
20438;DHT22;17436;50.338;8.810;2022-09-12T11:16:57;22.10;27.90
20438;DHT22;17436;50.338;8.810;2022-09-12T11:19:46;22.20;23.60
20438;DHT22;17436;50.338;8.810;2022-09-12T11:22:29;22.20;25.10
20438;DHT22;17436;50.338;8.810;2022-09-12T11:25:11;22.20;19.50
20438;DHT22;17436;50.338;8.810;2022-09-12T11:27:53;22.20;22.00
20438;DHT22;17436;50.338;8.810;2022-09-12T11:30:22;22.30;21.40
20438;DHT22;17436;50.338;8.810;2022-09-12T11:33:06;22.30;18.50
20438;DHT22;17436;50.338;8.810;2022-09-12T11:35:41;22.30;18.30
20438;DHT22;17436;50.338;8.810;2022-09-12T11:41:02;22.50;18.10
20438;DHT22;17436;50.338;8.810;2022-09-12T11:43:35;22.60;19.90
20438;DHT22;17436;50.338;8.810;2022-09-12T11:46:08;22.70;20.10
20438;DHT22;17436;50.338;8.810;2022-09-12T11:48:41;22.70;16.20
20438;DHT22;17436;50.338;8.810;2022-09-12T11:51:16;22.60;14.00
20438;DHT22;17436;50.338;8.810;2022-09-12T11:53:50;22.50;10.60
20438;DHT22;17436;50.338;8.810;2022-09-12T11:56:19;22.80;12.90
20438;DHT22;17436;50.338;8.810;2022-09-12T11:58:50;22.80;12.90
20438;DHT22;17436;50.338;8.810;2022-09-12T12:01:22;22.60;12.70
20438;DHT22;17436;50.338;8.810;2022-09-12T12:03:50;22.60;11.80
20438;DHT22;17436;50.338;8.810;2022-09-12T12:06:21;22.50;10.60
20438;DHT22;17436;50.338;8.810;2022-09-12T12:08:51;22.50;8.80
20438;DHT22;17436;50.338;8.810;2022-09-12T12:11:27;22.60;11.30
20438;DHT22;17436;50.338;8.810;2022-09-12T12:13:57;23.00;10.10
20438;DHT22;17436;50.338;8.810;2022-09-12T12:16:26;23.10;7.60
20438;DHT22;17436;50.338;8.810;2022-09-12T12:18:56;22.90;6.30
20438;DHT22;17436;50.338;8.810;2022-09-12T12:21:38;22.90;11.20
20438;DHT22;17436;50.338;8.810;2022-09-12T12:24:15;22.80;4.50
20438;DHT22;17436;50.338;8.810;2022-09-12T12:26:58;22.70;8.10
20438;DHT22;17436;50.338;8.810;2022-09-12T12:29:40;22.70;6.00
20438;DHT22;17436;50.338;8.810;2022-09-12T12:32:23;22.60;5.90
20438;DHT22;17436;50.338;8.810;2022-09-12T12:37:51;22.60;6.70
20438;DHT22;17436;50.338;8.810;2022-09-12T12:40:25;22.60;5.20
20438;DHT22;17436;50.338;8.810;2022-09-12T12:43:04;22.50;3.00
20438;DHT22;17436;50.338;8.810;2022-09-12T12:46:06;22.40;1.10
20438;DHT22;17436;50.338;8.810;2022-09-12T12:48:55;22.40;1.00
20438;DHT22;17436;50.338;8.810;2022-09-12T12:57:40;22.40;1.00
20438;DHT22;17436;50.338;8.810;2022-09-12T13:00:27;22.50;1.00
20438;DHT22;17436;50.338;8.810;2022-09-12T13:02:56;22.50;1.00
20438;DHT22;17436;50.338;8.810;2022-09-12T13:05:26;22.60;1.00
20438;DHT22;17436;50.338;8.810;2022-09-12T13:07:56;22.50;1.00
20438;DHT22;17436;50.338;8.810;2022-09-12T13:10:25;22.50;1.00
20438;DHT22;17436;50.338;8.810;2022-09-12T13:12:56;22.40;1.00
20438;DHT22;17436;50.338;8.810;2022-09-12T13:15:46;22.50;1.00
20438;DHT22;17436;50.338;8.810;2022-09-12T13:18:17;22.40;1.00
20438;DHT22;17436;50.338;8.810;2022-09-12T13:20:48;22.40;1.00
20438;DHT22;17436;50.338;8.810;2022-09-12T13:23:27;22.30;1.00
20438;DHT22;17436;50.338;8.810;2022-09-12T13:25:55;22.20;1.00
20438;DHT22;17436;50.338;8.810;2022-09-12T13:28:25;22.20;1.00
20438;DHT22;17436;50.338;8.810;2022-09-12T13:30:59;22.20;1.00
20438;DHT22;17436;50.338;8.810;2022-09-12T13:33:35;22.20;1.00
20438;DHT22;17436;50.338;8.810;2022-09-12T13:36:36;22.30;1.00
20438;DHT22;17436;50.338;8.810;2022-09-12T13:39:16;22.20;1.00
20438;DHT22;17436;50.338;8.810;2022-09-12T13:42:01;22.20;1.00
20438;DHT22;17436;50.338;8.810;2022-09-12T13:44:41;22.30;1.00
20438;DHT22;17436;50.338;8.810;2022-09-12T13:47:12;22.30;1.00
20438;DHT22;17436;50.338;8.810;2022-09-12T13:49:42;22.20;1.00
20438;DHT22;17436;50.338;8.810;2022-09-12T13:52:15;22.20;1.00
20438;DHT22;17436;50.338;8.810;2022-09-12T13:54:44;22.20;1.00
20438;DHT22;17436;50.338;8.810;2022-09-12T13:57:27;22.10;1.00
20438;DHT22;17436;50.338;8.810;2022-09-12T13:59:56;22.20;1.00
20438;DHT22;17436;50.338;8.810;2022-09-12T14:02:25;22.10;1.00
20438;DHT22;17436;50.338;8.810;2022-09-12T14:04:54;22.10;1.00
20438;DHT22;17436;50.338;8.810;2022-09-12T14:07:38;22.20;1.00
20438;DHT22;17436;50.338;8.810;2022-09-12T14:10:06;22.20;1.00
20438;DHT22;17436;50.338;8.810;2022-09-12T14:12:35;22.20;1.00
20438;DHT22;17436;50.338;8.810;2022-09-12T14:15:13;22.20;1.00
20438;DHT22;17436;50.338;8.810;2022-09-12T14:17:47;22.20;1.00
20438;DHT22;17436;50.338;8.810;2022-09-12T14:20:18;22.30;1.00
20438;DHT22;17436;50.338;8.810;2022-09-12T14:22:45;22.20;1.00
20438;DHT22;17436;50.338;8.810;2022-09-12T14:25:14;22.10;1.00
20438;DHT22;17436;50.338;8.810;2022-09-12T14:27:44;22.00;1.00
20438;DHT22;17436;50.338;8.810;2022-09-12T14:30:22;22.00;1.00
20438;DHT22;17436;50.338;8.810;2022-09-12T14:33:16;22.10;1.00
20438;DHT22;17436;50.338;8.810;2022-09-12T14:35:44;22.20;1.00
20438;DHT22;17436;50.338;8.810;2022-09-12T14:38:20;22.20;1.00
20438;DHT22;17436;50.338;8.810;2022-09-12T14:40:48;22.40;1.00
20438;DHT22;17436;50.338;8.810;2022-09-12T14:43:20;22.40;1.00
20438;DHT22;17436;50.338;8.810;2022-09-12T14:45:55;22.40;1.00
20438;DHT22;17436;50.338;8.810;2022-09-12T14:48:24;22.30;1.00
20438;DHT22;17436;50.338;8.810;2022-09-12T14:50:52;22.30;1.00
20438;DHT22;17436;50.338;8.810;2022-09-12T14:53:23;22.30;1.00
20438;DHT22;17436;50.338;8.810;2022-09-12T14:55:52;22.20;1.00
20438;DHT22;17436;50.338;8.810;2022-09-12T14:58:23;22.30;1.00
20438;DHT22;17436;50.338;8.810;2022-09-12T15:00:54;22.20;1.00
20438;DHT22;17436;50.338;8.810;2022-09-12T15:03:27;22.20;1.00
20438;DHT22;17436;50.338;8.810;2022-09-12T15:05:55;22.20;1.00
20438;DHT22;17436;50.338;8.810;2022-09-12T15:08:22;22.10;1.00
20438;DHT22;17436;50.338;8.810;2022-09-12T15:10:49;22.10;1.00
20438;DHT22;17436;50.338;8.810;2022-09-12T15:13:18;22.20;1.00
20438;DHT22;17436;50.338;8.810;2022-09-12T15:15:47;22.40;1.00
20438;DHT22;17436;50.338;8.810;2022-09-12T15:18:16;22.40;1.00
20438;DHT22;17436;50.338;8.810;2022-09-12T15:20:44;22.30;1.00
20438;DHT22;17436;50.338;8.810;2022-09-12T15:23:15;22.40;1.00
20438;DHT22;17436;50.338;8.810;2022-09-12T15:25:43;22.30;1.00
20438;DHT22;17436;50.338;8.810;2022-09-12T15:28:15;22.30;1.00
20438;DHT22;17436;50.338;8.810;2022-09-12T15:30:42;22.20;1.00
20438;DHT22;17436;50.338;8.810;2022-09-12T15:33:10;22.20;1.00
20438;DHT22;17436;50.338;8.810;2022-09-12T15:35:38;22.20;1.00
20438;DHT22;17436;50.338;8.810;2022-09-12T15:38:04;22.10;1.00
20438;DHT22;17436;50.338;8.810;2022-09-12T15:40:31;22.10;1.00
20438;DHT22;17436;50.338;8.810;2022-09-12T15:42:58;22.10;1.00
20438;DHT22;17436;50.338;8.810;2022-09-12T15:45:26;22.10;1.00
20438;DHT22;17436;50.338;8.810;2022-09-12T15:47:54;22.10;1.00
20438;DHT22;17436;50.338;8.810;2022-09-12T15:50:21;22.20;1.00
20438;DHT22;17436;50.338;8.810;2022-09-12T15:52:49;22.10;1.00
20438;DHT22;17436;50.338;8.810;2022-09-12T15:55:19;22.20;1.00
20438;DHT22;17436;50.338;8.810;2022-09-12T15:57:46;22.20;1.00
20438;DHT22;17436;50.338;8.810;2022-09-12T16:00:14;22.20;1.00
20438;DHT22;17436;50.338;8.810;2022-09-12T16:02:42;22.20;1.00
20438;DHT22;17436;50.338;8.810;2022-09-12T16:05:12;22.10;1.00
20438;DHT22;17436;50.338;8.810;2022-09-12T16:07:40;22.20;1.00
20438;DHT22;17436;50.338;8.810;2022-09-12T16:10:13;22.30;1.00
20438;DHT22;17436;50.338;8.810;2022-09-12T16:12:41;22.30;1.00
20438;DHT22;17436;50.338;8.810;2022-09-12T16:15:11;22.20;1.00